NCAR-RAP Real-Time Weather Data

Output produced by METARs form (06 May 2021  16:51 UTC)
found at http://weather.rap.ucar.edu/surface/
 
KCCR 061553Z 28007KT 10SM CLR 16/06 A3003 RMK AO2 SLP157 T01610061
KCCR 061453Z 18006KT 10SM CLR 14/06 A3002 RMK AO2 SLP152 T01390061 53013
KCCR 061353Z 22004KT 10SM CLR 12/06 A3002 RMK AO2 SLP150 T01170061
KCCR 061253Z AUTO 17004KT 10SM CLR 11/06 A2999 RMK AO2 SLP142 T01110056
KCCR 061153Z AUTO 19005KT 10SM CLR 12/06 A2998 RMK AO2 SLP139 T01170061 10139 20111 55001
KCCR 061053Z AUTO 19011KT 10SM CLR 12/06 A2998 RMK AO2 SLP139 T01170061
KCCR 060953Z AUTO 19011KT 10SM CLR 12/06 A2998 RMK AO2 SLP139 T01170061
KCCR 060853Z AUTO 19013KT 10SM CLR 12/07 A2999 RMK AO2 SLP140 T01170072 51006
KCCR 060753Z AUTO 18008KT 10SM CLR 12/07 A2999 RMK AO2 SLP140 T01220072 403390122
KCCR 060653Z AUTO 20011KT 10SM CLR 12/08 A2997 RMK AO2 SLP135 T01220078
KCCR 060553Z AUTO 18011KT 10SM CLR 14/08 A2997 RMK AO2 SLP134 T01390078 10328 20139 51029
KCCR 060453Z AUTO 20007KT 10SM CLR 16/08 A2995 RMK AO2 SLP127 T01560078
KCCR 060353Z 25008KT 10SM CLR 17/08 A2993 RMK AO2 SLP120 T01720078